createdAt,value
2017-01-23T00:01:13.515Z,0
2017-01-23T00:02:36.017Z,0
2017-01-23T00:03:58.585Z,0
2017-01-23T00:05:21.465Z,0
2017-01-23T00:06:44.369Z,0
2017-01-23T00:08:06.860Z,0
2017-01-23T00:09:29.503Z,0
2017-01-23T00:10:51.976Z,0
2017-01-23T00:12:14.133Z,0
2017-01-23T00:13:36.240Z,0
2017-01-23T00:14:58.080Z,0
2017-01-23T00:16:21.202Z,0
2017-01-23T00:17:43.692Z,0
2017-01-23T00:19:05.821Z,0
2017-01-23T00:20:28.302Z,0
2017-01-23T00:21:50.802Z,0
2017-01-23T00:23:12.086Z,0
2017-01-23T00:24:34.577Z,0
2017-01-23T00:25:57.475Z,0
2017-01-23T00:27:19.958Z,0
2017-01-23T00:28:42.845Z,0
2017-01-23T00:30:04.930Z,0
2017-01-23T00:31:26.621Z,0
2017-01-23T00:32:49.141Z,0
2017-01-23T00:34:11.610Z,0
2017-01-23T00:35:33.306Z,0
2017-01-23T00:36:56.322Z,0
2017-01-23T00:38:18.890Z,0
2017-01-23T00:39:40.995Z,0
2017-01-23T00:41:04.005Z,0
2017-01-23T00:42:26.240Z,0
2017-01-23T00:43:49.153Z,0
2017-01-23T00:45:11.896Z,0
2017-01-23T00:46:34.380Z,0
2017-01-23T00:47:57.259Z,0
2017-01-23T00:49:19.740Z,0
2017-01-23T00:50:41.848Z,0
2017-01-23T00:52:03.934Z,0
2017-01-23T00:53:26.491Z,0
2017-01-23T00:54:48.160Z,0
2017-01-23T00:56:11.063Z,0
2017-01-23T00:57:33.552Z,0
2017-01-23T00:58:56.474Z,0
2017-01-23T01:00:18.551Z,0
2017-01-23T01:01:40.285Z,0
2017-01-23T01:03:02.016Z,0
2017-01-23T01:04:24.120Z,0
2017-01-23T01:05:45.801Z,0
2017-01-23T01:07:07.890Z,0
2017-01-23T01:08:30.790Z,0
2017-01-23T01:09:53.737Z,0
2017-01-23T01:11:15.809Z,0
2017-01-23T01:12:38.363Z,0
2017-01-23T01:14:01.372Z,0
2017-01-23T01:15:23.047Z,0
2017-01-23T01:16:45.332Z,0
2017-01-23T01:18:07.027Z,0
2017-01-23T01:19:29.545Z,0
2017-01-23T01:20:51.628Z,0
2017-01-23T01:22:13.321Z,0
2017-01-23T01:23:36.229Z,0
2017-01-23T01:24:58.745Z,0
2017-01-23T01:26:20.425Z,0
2017-01-23T01:27:43.323Z,0
2017-01-23T01:29:06.215Z,0
2017-01-23T01:30:29.105Z,0
2017-01-23T01:31:52.064Z,0
2017-01-23T01:33:14.623Z,0
2017-01-23T01:34:36.706Z,0
2017-01-23T01:35:58.465Z,0
2017-01-23T01:37:20.977Z,0
2017-01-23T01:38:43.460Z,0
2017-01-23T01:40:05.934Z,0
2017-01-23T01:41:28.053Z,0
2017-01-23T01:42:49.835Z,0
2017-01-23T01:44:11.951Z,0
2017-01-23T01:45:34.420Z,0
2017-01-23T01:46:56.633Z,0
2017-01-23T01:48:18.432Z,0
2017-01-23T01:49:40.932Z,0
2017-01-23T01:51:02.682Z,0
2017-01-23T01:52:25.582Z,0
2017-01-23T01:53:48.075Z,0
2017-01-23T01:55:10.695Z,0
2017-01-23T01:56:32.775Z,0
2017-01-23T01:57:55.741Z,0
2017-01-23T01:59:18.224Z,0
2017-01-23T02:00:41.095Z,0
2017-01-23T02:02:03.559Z,0
2017-01-23T02:03:26.050Z,0
2017-01-23T02:04:49.019Z,0
2017-01-23T02:06:11.554Z,0
2017-01-23T02:07:34.490Z,0
2017-01-23T02:08:56.781Z,0
2017-01-23T02:10:19.254Z,0
2017-01-23T02:11:41.880Z,0
2017-01-23T02:13:04.413Z,0
2017-01-23T02:14:27.285Z,0
2017-01-23T02:15:48.675Z,0
2017-01-23T02:17:11.225Z,0
2017-01-23T02:18:33.446Z,0
2017-01-23T02:19:56.439Z,0
2017-01-23T02:21:18.559Z,0
2017-01-23T02:22:41.463Z,0
2017-01-23T02:24:03.533Z,0
2017-01-23T02:25:26.412Z,0
2017-01-23T02:26:48.094Z,0
2017-01-23T02:28:11.000Z,0
2017-01-23T02:29:33.257Z,0
2017-01-23T02:30:54.588Z,0
2017-01-23T02:32:17.602Z,0
2017-01-23T02:33:39.703Z,0
2017-01-23T02:35:02.607Z,0
2017-01-23T02:36:25.124Z,0
2017-01-23T02:37:48.025Z,0
2017-01-23T02:39:10.914Z,0
2017-01-23T02:40:33.850Z,0
2017-01-23T02:41:56.366Z,0
2017-01-23T02:43:18.907Z,0
2017-01-23T02:44:41.005Z,0
2017-01-23T02:46:03.160Z,0
2017-01-23T02:47:26.034Z,0
2017-01-23T02:48:49.020Z,0
2017-01-23T02:50:10.700Z,0
2017-01-23T02:51:32.892Z,0
2017-01-23T02:52:55.809Z,0
2017-01-23T02:54:17.893Z,0
2017-01-23T02:55:40.381Z,0
2017-01-23T02:57:02.871Z,0
2017-01-23T02:58:25.437Z,0
2017-01-23T02:59:47.523Z,0
2017-01-23T03:01:09.602Z,0
2017-01-23T03:02:32.086Z,0
2017-01-23T03:03:53.784Z,0
2017-01-23T03:05:16.303Z,0
2017-01-23T03:06:38.397Z,0
2017-01-23T03:08:00.480Z,0
2017-01-23T03:09:21.741Z,0
2017-01-23T03:10:43.824Z,0
2017-01-23T03:12:06.014Z,0
2017-01-23T03:13:28.114Z,0
2017-01-23T03:14:51.066Z,0
2017-01-23T03:16:14.105Z,0
2017-01-23T03:17:36.609Z,0
2017-01-23T03:18:59.503Z,0
2017-01-23T03:20:21.985Z,0
2017-01-23T03:21:44.886Z,0
2017-01-23T03:23:07.404Z,0
2017-01-23T03:24:29.884Z,0
2017-01-23T03:25:52.399Z,0
2017-01-23T03:27:14.081Z,0
2017-01-23T03:28:36.320Z,0
2017-01-23T03:29:58.798Z,0
2017-01-23T03:31:21.442Z,0
2017-01-23T03:32:43.522Z,0
2017-01-23T03:34:06.407Z,0
2017-01-23T03:35:28.562Z,0
2017-01-23T03:36:51.486Z,0
2017-01-23T03:38:14.427Z,0
2017-01-23T03:39:36.952Z,0
2017-01-23T03:40:59.435Z,0
2017-01-23T03:42:21.558Z,0
2017-01-23T03:43:44.040Z,0
2017-01-23T03:45:06.930Z,0
2017-01-23T03:46:29.507Z,0
2017-01-23T03:47:52.437Z,0
2017-01-23T03:49:14.623Z,0
2017-01-23T03:50:36.699Z,0
2017-01-23T03:51:58.383Z,0
2017-01-23T03:53:21.062Z,0
2017-01-23T03:54:43.191Z,0
2017-01-23T03:56:05.429Z,0
2017-01-23T03:57:27.924Z,0
2017-01-23T03:58:50.817Z,0
2017-01-23T04:00:12.504Z,0
2017-01-23T04:01:34.569Z,0
2017-01-23T04:02:57.451Z,0
2017-01-23T04:04:19.599Z,0
2017-01-23T04:05:42.093Z,0
2017-01-23T04:07:04.648Z,0
2017-01-23T04:08:26.732Z,0
2017-01-23T04:09:49.750Z,0
2017-01-23T04:11:12.960Z,0
2017-01-23T04:12:35.578Z,0
2017-01-23T04:13:57.668Z,0
2017-01-23T04:15:19.365Z,0
2017-01-23T04:16:41.865Z,0
2017-01-23T04:18:04.362Z,0
2017-01-23T04:19:26.444Z,0
2017-01-23T04:20:48.133Z,0
2017-01-23T04:22:10.705Z,0
2017-01-23T04:23:33.243Z,0
2017-01-23T04:24:56.207Z,0
2017-01-23T04:26:18.274Z,0
2017-01-23T04:27:40.764Z,0
2017-01-23T04:29:02.877Z,0
2017-01-23T04:30:25.401Z,0
2017-01-23T04:31:47.933Z,0
2017-01-23T04:33:10.434Z,0
2017-01-23T04:34:32.517Z,0
2017-01-23T04:35:54.993Z,0
2017-01-23T04:37:18.223Z,0
2017-01-23T04:38:39.489Z,0
2017-01-23T04:40:01.315Z,0
2017-01-23T04:41:23.828Z,0
2017-01-23T04:42:46.801Z,0
2017-01-23T04:44:09.342Z,0
2017-01-23T04:45:32.249Z,0
2017-01-23T04:46:54.332Z,0
2017-01-23T04:48:16.799Z,0
2017-01-23T04:49:39.380Z,0
2017-01-23T04:51:01.556Z,0
2017-01-23T04:52:24.491Z,0
2017-01-23T04:53:46.979Z,0
2017-01-23T04:55:09.576Z,0
2017-01-23T04:56:32.464Z,0
2017-01-23T04:57:54.954Z,0
2017-01-23T04:59:16.633Z,0
2017-01-23T05:00:38.775Z,0
2017-01-23T05:02:00.864Z,0
2017-01-23T05:03:22.668Z,0
2017-01-23T05:04:44.758Z,0
2017-01-23T05:06:07.238Z,0
2017-01-23T05:07:29.334Z,0
2017-01-23T05:08:51.009Z,0
2017-01-23T05:10:13.582Z,0
2017-01-23T05:11:36.064Z,0
2017-01-23T05:12:58.142Z,0
2017-01-23T05:14:20.626Z,0
2017-01-23T05:15:42.735Z,0
2017-01-23T05:17:05.365Z,0
2017-01-23T05:18:27.564Z,0
2017-01-23T05:19:50.049Z,0
2017-01-23T05:21:12.652Z,0
2017-01-23T05:22:35.249Z,0
2017-01-23T05:23:57.755Z,0
2017-01-23T05:25:20.234Z,0
2017-01-23T05:26:42.749Z,0
2017-01-23T05:28:05.724Z,0
2017-01-23T05:29:28.230Z,0
2017-01-23T05:30:51.184Z,0
2017-01-23T05:32:13.711Z,0
2017-01-23T05:33:36.305Z,0
2017-01-23T05:34:58.385Z,0
2017-01-23T05:36:20.590Z,0
2017-01-23T05:37:42.725Z,0
2017-01-23T05:39:05.204Z,0
2017-01-23T05:40:27.782Z,0
2017-01-23T05:41:49.974Z,0
2017-01-23T05:43:12.611Z,0
2017-01-23T05:44:35.101Z,0
2017-01-23T05:45:57.704Z,0
2017-01-23T05:47:20.186Z,0
2017-01-23T05:48:42.418Z,0
2017-01-23T05:50:04.090Z,0
2017-01-23T05:51:26.997Z,0
2017-01-23T05:52:49.076Z,0
2017-01-23T05:54:11.167Z,0
2017-01-23T05:55:34.094Z,0
2017-01-23T05:56:55.821Z,0
2017-01-23T05:58:18.930Z,0
2017-01-23T05:59:41.071Z,0
2017-01-23T06:01:03.593Z,0
2017-01-23T06:02:26.511Z,0
2017-01-23T06:03:49.667Z,0
2017-01-23T06:05:12.679Z,0
2017-01-23T06:06:35.573Z,0
2017-01-23T06:07:57.649Z,0
2017-01-23T06:09:19.831Z,0
2017-01-23T06:10:42.388Z,0
2017-01-23T06:12:04.861Z,0
2017-01-23T06:13:27.386Z,0
2017-01-23T06:14:49.888Z,0
2017-01-23T06:16:12.062Z,0
2017-01-23T06:17:34.185Z,0
2017-01-23T06:18:56.362Z,0
2017-01-23T06:20:18.050Z,0
2017-01-23T06:21:40.561Z,0
2017-01-23T06:23:02.263Z,0
2017-01-23T06:24:24.361Z,0
2017-01-23T06:25:46.897Z,0
2017-01-23T06:27:08.986Z,0
2017-01-23T06:28:31.083Z,0
2017-01-23T06:29:53.590Z,0
2017-01-23T06:31:16.530Z,0
2017-01-23T06:32:38.618Z,0
2017-01-23T06:34:00.679Z,0
2017-01-23T06:35:22.378Z,0
2017-01-23T06:36:44.849Z,0
2017-01-23T06:38:06.552Z,0
2017-01-23T06:39:29.490Z,0
2017-01-23T06:40:51.588Z,0
2017-01-23T06:42:13.354Z,0
2017-01-23T06:43:36.360Z,0
2017-01-23T06:44:59.275Z,0
2017-01-23T06:46:22.216Z,0
2017-01-23T06:47:44.767Z,12
2017-01-23T06:49:06.838Z,12
2017-01-23T06:50:29.028Z,12
2017-01-23T06:51:51.123Z,12
2017-01-23T06:53:14.063Z,16
2017-01-23T06:54:36.592Z,16
2017-01-23T06:55:59.083Z,12
2017-01-23T06:57:22.194Z,16
2017-01-23T06:58:45.173Z,16
2017-01-23T07:00:07.802Z,20
2017-01-23T07:01:30.298Z,20
2017-01-23T07:02:52.426Z,24
2017-01-23T07:04:14.587Z,28
2017-01-23T07:05:36.672Z,32
2017-01-23T07:06:59.282Z,40
2017-01-23T07:08:21.375Z,44
2017-01-23T07:09:44.372Z,52
2017-01-23T07:11:06.955Z,56
2017-01-23T07:12:29.449Z,64
2017-01-23T07:13:52.071Z,76
2017-01-23T07:15:14.558Z,84
2017-01-23T07:16:37.038Z,100
2017-01-23T07:17:58.740Z,108
2017-01-23T07:19:21.691Z,120
2017-01-23T07:20:43.830Z,128
2017-01-23T07:22:06.409Z,120
2017-01-23T07:23:28.513Z,120
2017-01-23T07:24:51.051Z,132
2017-01-23T07:26:13.146Z,168
2017-01-23T07:27:35.910Z,208
2017-01-23T07:28:58.000Z,228
2017-01-23T07:30:20.154Z,244
2017-01-23T07:31:42.698Z,264
2017-01-23T07:33:05.238Z,272
2017-01-23T07:34:28.116Z,308
2017-01-23T07:35:50.570Z,328
2017-01-23T07:37:13.478Z,384
2017-01-23T07:38:36.459Z,368
2017-01-23T07:39:58.272Z,420
2017-01-23T07:41:21.163Z,476
2017-01-23T07:42:43.662Z,488
2017-01-23T07:44:06.202Z,472
2017-01-23T07:45:29.194Z,492
2017-01-23T07:46:51.692Z,536
2017-01-23T07:48:14.178Z,584
2017-01-23T07:49:37.142Z,596
2017-01-23T07:51:00.241Z,644
2017-01-23T07:52:23.233Z,696
2017-01-23T07:53:45.297Z,724
2017-01-23T07:55:08.199Z,784
2017-01-23T07:56:31.091Z,828
2017-01-23T07:57:54.078Z,892
2017-01-23T07:59:16.958Z,984
2017-01-23T08:00:39.987Z,1032
2017-01-23T08:02:02.851Z,1004
2017-01-23T08:03:25.726Z,980
2017-01-23T08:04:48.214Z,968
2017-01-23T08:06:11.225Z,968
2017-01-23T08:07:33.333Z,992
2017-01-23T08:08:55.823Z,1120
2017-01-23T08:10:18.710Z,1156
2017-01-23T08:11:41.360Z,1148
2017-01-23T08:13:04.241Z,1060
2017-01-23T08:14:26.403Z,1140
2017-01-23T08:15:48.881Z,1124
2017-01-23T08:17:10.552Z,916
2017-01-23T08:18:33.162Z,868
2017-01-23T08:19:56.072Z,968
2017-01-23T08:21:18.225Z,1172
2017-01-23T08:22:40.435Z,1116
2017-01-23T08:24:03.315Z,1196
2017-01-23T08:25:26.360Z,1260
2017-01-23T08:26:48.851Z,1232
2017-01-23T08:28:11.371Z,1316
2017-01-23T08:29:33.456Z,1316
2017-01-23T08:30:56.030Z,1388
2017-01-23T08:32:18.120Z,1632
2017-01-23T08:33:40.587Z,1740
2017-01-23T08:35:03.536Z,1796
2017-01-23T08:36:26.692Z,1752
2017-01-23T08:37:49.581Z,1676
2017-01-23T08:39:12.139Z,1780
2017-01-23T08:40:35.007Z,1896
2017-01-23T08:41:57.534Z,1992
2017-01-23T08:43:20.446Z,2300
2017-01-23T08:44:43.436Z,2536
2017-01-23T08:46:06.320Z,2800
2017-01-23T08:47:28.415Z,3200
2017-01-23T08:48:51.080Z,3420
2017-01-23T08:50:12.781Z,3436
2017-01-23T08:51:35.691Z,3428
2017-01-23T08:52:58.584Z,3432
2017-01-23T08:54:20.730Z,3236
2017-01-23T08:55:43.224Z,3460
2017-01-23T08:57:05.950Z,4096
2017-01-23T08:58:28.504Z,4160
2017-01-23T08:59:51.551Z,3820
2017-01-23T09:01:14.446Z,3608
2017-01-23T09:02:36.549Z,3112
2017-01-23T09:03:59.091Z,3432
2017-01-23T09:05:21.590Z,3396
2017-01-23T09:06:43.296Z,3276
2017-01-23T09:08:05.771Z,3668
2017-01-23T09:09:28.756Z,3892
2017-01-23T09:10:50.445Z,3764
2017-01-23T09:12:13.392Z,4068
2017-01-23T09:13:36.478Z,4476
2017-01-23T09:14:59.372Z,4500
2017-01-23T09:16:21.850Z,4940
2017-01-23T09:17:44.709Z,4972
2017-01-23T09:19:07.214Z,4848
2017-01-23T09:20:29.745Z,4844
2017-01-23T09:21:52.233Z,5152
2017-01-23T09:23:15.153Z,5008
2017-01-23T09:24:37.686Z,5380
2017-01-23T09:26:00.660Z,5372
2017-01-23T09:27:23.140Z,5588
2017-01-23T09:28:44.813Z,5840
2017-01-23T09:30:06.902Z,5944
2017-01-23T09:31:29.533Z,6144
2017-01-23T09:32:51.998Z,5992
2017-01-23T09:34:14.936Z,6368
2017-01-23T09:35:37.841Z,6524
2017-01-23T09:37:00.409Z,6140
2017-01-23T09:38:22.907Z,6180
2017-01-23T09:39:45.803Z,6204
2017-01-23T09:41:08.277Z,6432
2017-01-23T09:42:30.763Z,7464
2017-01-23T09:43:53.010Z,7680
2017-01-23T09:45:14.294Z,7904
2017-01-23T09:46:36.771Z,7244
2017-01-23T09:47:59.714Z,7292
2017-01-23T09:49:22.253Z,7484
2017-01-23T09:50:44.757Z,7592
2017-01-23T09:52:06.950Z,7400
2017-01-23T09:53:28.243Z,7300
2017-01-23T09:54:51.232Z,7260
2017-01-23T09:56:13.733Z,7092
2017-01-23T09:57:36.336Z,6760
2017-01-23T09:58:59.221Z,6484
2017-01-23T10:00:21.703Z,6408
2017-01-23T10:01:44.583Z,6288
2017-01-23T10:03:07.214Z,6152
2017-01-23T10:04:29.727Z,6244
2017-01-23T10:05:52.644Z,6196
2017-01-23T10:07:15.315Z,6216
2017-01-23T10:08:38.192Z,6152
2017-01-23T10:10:01.099Z,5896
2017-01-23T10:11:23.991Z,5804
2017-01-23T10:12:46.134Z,5716
2017-01-23T10:14:08.630Z,5680
2017-01-23T10:15:30.715Z,5768
2017-01-23T10:16:53.612Z,5812
2017-01-23T10:18:16.516Z,5708
2017-01-23T10:19:39.429Z,5860
2017-01-23T10:21:01.912Z,5800
2017-01-23T10:22:24.433Z,5904
2017-01-23T10:23:47.320Z,5980
2017-01-23T10:25:09.889Z,6040
2017-01-23T10:26:32.372Z,5948
2017-01-23T10:27:55.413Z,5892
2017-01-23T10:29:18.314Z,5948
2017-01-23T10:30:40.401Z,5908
2017-01-23T10:32:03.276Z,5876
2017-01-23T10:33:25.811Z,5824
2017-01-23T10:34:48.269Z,5804
2017-01-23T10:36:10.343Z,5784
2017-01-23T10:37:32.826Z,5832
2017-01-23T10:38:55.289Z,6012
2017-01-23T10:40:18.221Z,6168
2017-01-23T10:41:40.313Z,6184
2017-01-23T10:43:02.409Z,6184
2017-01-23T10:44:24.516Z,6160
2017-01-23T10:45:47.014Z,6216
2017-01-23T10:47:09.566Z,6220
2017-01-23T10:48:32.053Z,6296
2017-01-23T10:49:54.707Z,6280
2017-01-23T10:51:17.191Z,6372
2017-01-23T10:52:40.839Z,6404
2017-01-23T10:54:03.328Z,6464
2017-01-23T10:55:25.416Z,6548
2017-01-23T10:56:48.370Z,6636
2017-01-23T10:58:10.857Z,6624
2017-01-23T10:59:33.831Z,6648
2017-01-23T11:00:56.725Z,6648
2017-01-23T11:02:19.233Z,6724
2017-01-23T11:03:42.153Z,6804
2017-01-23T11:05:05.038Z,6844
2017-01-23T11:06:27.292Z,6888
2017-01-23T11:07:49.744Z,6948
2017-01-23T11:09:11.449Z,6960
2017-01-23T11:10:33.966Z,6956
2017-01-23T11:11:56.795Z,7004
2017-01-23T11:13:19.333Z,7088
2017-01-23T11:14:41.864Z,7156
2017-01-23T11:16:04.426Z,7224
2017-01-23T11:17:26.591Z,7304
2017-01-23T11:18:49.232Z,7352
2017-01-23T11:20:11.318Z,7360
2017-01-23T11:21:33.896Z,7356
2017-01-23T11:22:56.382Z,7372
2017-01-23T11:24:18.886Z,7396
2017-01-23T11:25:41.361Z,7492
2017-01-23T11:27:04.390Z,7688
2017-01-23T11:28:26.892Z,7816
2017-01-23T11:29:49.480Z,7800
2017-01-23T11:31:11.674Z,7644
2017-01-23T11:32:34.683Z,7512
2017-01-23T11:33:57.232Z,7472
2017-01-23T11:35:20.213Z,7408
2017-01-23T11:36:42.710Z,7428
2017-01-23T11:38:05.354Z,7656
2017-01-23T11:39:27.863Z,8048
2017-01-23T11:40:50.453Z,8856
2017-01-23T11:42:13.341Z,9152
2017-01-23T11:43:36.313Z,9032
2017-01-23T11:44:58.817Z,9172
2017-01-23T11:46:21.692Z,9184
2017-01-23T11:47:44.257Z,9088
2017-01-23T11:49:06.330Z,9676
2017-01-23T11:50:28.883Z,10484
2017-01-23T11:51:51.382Z,10600
2017-01-23T11:53:14.432Z,10524
2017-01-23T11:54:37.320Z,10100
2017-01-23T11:56:00.216Z,10276
2017-01-23T11:57:22.702Z,10328
2017-01-23T11:58:45.222Z,10424
2017-01-23T12:00:07.721Z,10476
2017-01-23T12:01:30.690Z,10436
2017-01-23T12:02:53.259Z,10500
2017-01-23T12:04:16.174Z,10416
2017-01-23T12:05:39.074Z,10340
2017-01-23T12:07:01.615Z,9784
2017-01-23T12:08:24.094Z,9124
2017-01-23T12:09:46.592Z,8592
2017-01-23T12:11:09.172Z,8120
2017-01-23T12:12:31.741Z,7940
2017-01-23T12:13:54.621Z,7308
2017-01-23T12:15:17.526Z,6320
2017-01-23T12:16:40.478Z,5924
2017-01-23T12:18:03.393Z,5852
2017-01-23T12:19:25.901Z,6220
2017-01-23T12:20:48.815Z,6824
2017-01-23T12:22:10.904Z,7192
2017-01-23T12:23:32.581Z,7144
2017-01-23T12:24:55.453Z,7140
2017-01-23T12:26:18.361Z,7028
2017-01-23T12:27:41.263Z,7004
2017-01-23T12:29:03.763Z,7120
2017-01-23T12:30:26.730Z,7216
2017-01-23T12:31:49.691Z,7308
2017-01-23T12:33:11.574Z,7016
2017-01-23T12:34:34.468Z,6788
2017-01-23T12:35:57.020Z,6960
2017-01-23T12:37:19.530Z,7272
2017-01-23T12:38:41.625Z,7500
2017-01-23T12:40:03.725Z,7392
2017-01-23T12:41:25.834Z,7256
2017-01-23T12:42:48.876Z,7340
2017-01-23T12:44:11.392Z,7216
2017-01-23T12:45:34.304Z,7112
2017-01-23T12:46:56.795Z,6828
2017-01-23T12:48:19.456Z,6500
2017-01-23T12:49:41.979Z,6296
2017-01-23T12:51:04.184Z,6052
2017-01-23T12:52:26.658Z,5948
2017-01-23T12:53:49.229Z,6100
2017-01-23T12:55:12.113Z,6376
2017-01-23T12:56:35.010Z,6404
2017-01-23T12:57:56.692Z,6116
2017-01-23T12:59:19.196Z,5880
2017-01-23T13:00:42.116Z,5924
2017-01-23T13:02:05.031Z,5936
2017-01-23T13:03:27.232Z,5656
2017-01-23T13:04:49.489Z,5796
2017-01-23T13:06:12.372Z,6088
2017-01-23T13:07:35.340Z,6320
2017-01-23T13:08:57.447Z,6308
2017-01-23T13:10:20.440Z,5960
2017-01-23T13:11:43.040Z,5904
2017-01-23T13:13:06.074Z,5804
2017-01-23T13:14:28.963Z,5832
2017-01-23T13:15:51.471Z,5500
2017-01-23T13:17:14.353Z,5176
2017-01-23T13:18:36.817Z,5020
2017-01-23T13:19:59.547Z,4776
2017-01-23T13:21:22.153Z,4616
2017-01-23T13:22:45.192Z,4424
2017-01-23T13:24:07.700Z,4196
2017-01-23T13:25:30.357Z,4248
2017-01-23T13:26:52.451Z,4132
2017-01-23T13:28:15.335Z,3948
2017-01-23T13:29:38.210Z,3748
2017-01-23T13:31:00.711Z,3476
2017-01-23T13:32:23.667Z,3268
2017-01-23T13:33:45.795Z,3280
2017-01-23T13:35:07.965Z,3208
2017-01-23T13:36:30.952Z,3196
2017-01-23T13:37:53.881Z,3360
2017-01-23T13:39:16.797Z,3268
2017-01-23T13:40:38.925Z,3176
2017-01-23T13:42:01.550Z,3140
2017-01-23T13:43:24.083Z,3176
2017-01-23T13:44:46.732Z,3280
2017-01-23T13:46:09.322Z,3280
2017-01-23T13:47:32.239Z,3240
2017-01-23T13:48:54.337Z,3292
2017-01-23T13:50:16.827Z,3272
2017-01-23T13:51:38.619Z,3184
2017-01-23T13:53:01.513Z,3248
2017-01-23T13:54:23.699Z,3212
2017-01-23T13:55:46.647Z,3112
2017-01-23T13:57:08.744Z,2984
2017-01-23T13:58:30.928Z,2928
2017-01-23T13:59:53.399Z,2796
2017-01-23T14:01:15.891Z,2592
2017-01-23T14:02:38.807Z,2640
2017-01-23T14:04:01.697Z,2684
2017-01-23T14:05:24.179Z,2588
2017-01-23T14:06:47.155Z,2552
2017-01-23T14:08:10.143Z,2492
2017-01-23T14:09:33.049Z,2364
2017-01-23T14:10:55.986Z,2212
2017-01-23T14:12:18.560Z,2120
2017-01-23T14:13:40.640Z,2140
2017-01-23T14:15:03.771Z,2224
2017-01-23T14:16:26.662Z,2276
2017-01-23T14:17:49.367Z,2348
2017-01-23T14:19:13.022Z,2504
2017-01-23T14:20:35.927Z,2532
2017-01-23T14:21:58.932Z,2560
2017-01-23T14:23:21.411Z,2588
2017-01-23T14:24:43.996Z,2528
2017-01-23T14:26:06.495Z,2376
2017-01-23T14:27:29.420Z,2336
2017-01-23T14:28:52.418Z,2324
2017-01-23T14:30:15.315Z,2324
2017-01-23T14:31:37.369Z,2308
2017-01-23T14:32:59.977Z,2280
2017-01-23T14:34:22.966Z,2328
2017-01-23T14:35:45.075Z,2396
2017-01-23T14:37:07.989Z,2432
2017-01-23T14:38:30.881Z,2484
2017-01-23T14:39:53.835Z,2440
2017-01-23T14:41:16.735Z,2440
2017-01-23T14:42:39.795Z,2292
2017-01-23T14:44:02.298Z,2312
2017-01-23T14:45:24.799Z,2324
2017-01-23T14:46:47.731Z,2284
2017-01-23T14:48:10.724Z,2300
2017-01-23T14:49:33.614Z,2332
2017-01-23T14:50:56.510Z,2308
2017-01-23T14:52:19.412Z,2220
2017-01-23T14:53:42.061Z,2068
2017-01-23T14:55:04.941Z,1928
2017-01-23T14:56:27.999Z,1736
2017-01-23T14:57:50.885Z,1620
2017-01-23T14:59:13.494Z,1512
2017-01-23T15:00:35.966Z,1412
2017-01-23T15:01:58.855Z,1348
2017-01-23T15:03:21.736Z,1360
2017-01-23T15:04:44.678Z,1344
2017-01-23T15:06:06.840Z,1304
2017-01-23T15:07:29.438Z,1264
2017-01-23T15:08:52.576Z,1292
2017-01-23T15:10:15.076Z,1248
2017-01-23T15:11:37.401Z,1168
2017-01-23T15:13:00.356Z,1088
2017-01-23T15:14:23.217Z,1036
2017-01-23T15:15:46.053Z,988
2017-01-23T15:17:08.981Z,964
2017-01-23T15:18:31.876Z,936
2017-01-23T15:19:54.908Z,904
2017-01-23T15:21:17.739Z,872
2017-01-23T15:22:39.837Z,836
2017-01-23T15:24:02.320Z,788
2017-01-23T15:25:24.871Z,716
2017-01-23T15:26:47.916Z,660
2017-01-23T15:28:09.607Z,628
2017-01-23T15:29:32.491Z,624
2017-01-23T15:30:55.478Z,616
2017-01-23T15:32:18.381Z,604
2017-01-23T15:33:41.318Z,600
2017-01-23T15:35:04.266Z,592
2017-01-23T15:36:26.383Z,576
2017-01-23T15:37:48.937Z,544
2017-01-23T15:39:11.163Z,516
2017-01-23T15:40:34.105Z,484
2017-01-23T15:41:56.675Z,444
2017-01-23T15:43:19.636Z,412
2017-01-23T15:44:41.344Z,388
2017-01-23T15:46:02.711Z,356
2017-01-23T15:47:25.579Z,324
2017-01-23T15:48:48.609Z,300
2017-01-23T15:50:11.536Z,268
2017-01-23T15:51:34.493Z,240
2017-01-23T15:52:57.390Z,216
2017-01-23T15:54:20.331Z,184
2017-01-23T15:55:42.923Z,164
2017-01-23T15:57:05.428Z,140
2017-01-23T15:58:28.330Z,132
2017-01-23T15:59:51.352Z,116
2017-01-23T16:01:14.224Z,100
2017-01-23T16:02:37.131Z,88
2017-01-23T16:04:00.097Z,72
2017-01-23T16:05:23.089Z,68
2017-01-23T16:06:46.052Z,56
2017-01-23T16:08:08.920Z,48
2017-01-23T16:09:32.000Z,40
2017-01-23T16:10:54.475Z,36
2017-01-23T16:12:17.450Z,32
2017-01-23T16:13:40.328Z,28
2017-01-23T16:15:03.234Z,24
2017-01-23T16:16:26.117Z,20
2017-01-23T16:17:49.018Z,20
2017-01-23T16:19:11.982Z,16
2017-01-23T16:20:34.947Z,16
2017-01-23T16:22:29.900Z,16
2017-01-23T16:23:52.953Z,12
2017-01-23T16:25:15.880Z,12
2017-01-23T16:26:38.768Z,12
2017-01-23T16:28:01.674Z,12
2017-01-23T16:29:24.576Z,12
2017-01-23T16:30:47.492Z,12
2017-01-23T16:32:10.356Z,12
2017-01-23T16:33:32.438Z,12
2017-01-23T16:34:55.351Z,12
2017-01-23T16:36:18.508Z,12
2017-01-23T16:37:41.516Z,12
2017-01-23T16:39:04.506Z,12
2017-01-23T16:40:27.427Z,12
2017-01-23T16:41:50.328Z,12
2017-01-23T16:43:12.837Z,12
2017-01-23T16:44:35.695Z,12
2017-01-23T16:45:58.690Z,12
2017-01-23T16:47:21.579Z,12
2017-01-23T16:48:44.836Z,12
2017-01-23T16:50:07.719Z,12
2017-01-23T16:51:30.283Z,12
2017-01-23T16:52:53.163Z,12
2017-01-23T16:54:16.123Z,12
2017-01-23T16:55:39.005Z,12
2017-01-23T16:57:01.115Z,12
2017-01-23T16:58:23.996Z,12
2017-01-23T16:59:46.900Z,12
2017-01-23T17:01:09.796Z,12
2017-01-23T17:02:32.722Z,12
2017-01-23T17:03:55.683Z,12
2017-01-23T17:05:18.666Z,12
2017-01-23T17:06:41.185Z,12
2017-01-23T17:08:04.203Z,12
2017-01-23T17:09:27.094Z,12
2017-01-23T17:10:50.015Z,12
2017-01-23T17:12:12.479Z,12
2017-01-23T17:13:35.108Z,12
2017-01-23T17:14:57.591Z,12
2017-01-23T17:16:20.626Z,12
2017-01-23T17:17:43.221Z,12
2017-01-23T17:19:06.244Z,12
2017-01-23T17:20:29.123Z,12
2017-01-23T17:21:51.745Z,12
2017-01-23T17:23:14.331Z,12
2017-01-23T17:24:37.276Z,12
2017-01-23T17:26:00.412Z,12
2017-01-23T17:27:22.924Z,12
2017-01-23T17:28:45.811Z,12
2017-01-23T17:30:08.700Z,12
2017-01-23T17:31:31.613Z,12
2017-01-23T17:32:54.084Z,12
2017-01-23T17:34:17.012Z,12
2017-01-23T17:35:39.474Z,12
2017-01-23T17:37:02.392Z,12
2017-01-23T17:38:24.860Z,12
2017-01-23T17:39:47.360Z,12
2017-01-23T17:41:09.423Z,12
2017-01-23T17:42:31.875Z,12
2017-01-23T17:43:54.955Z,12
2017-01-23T17:45:17.841Z,12
2017-01-23T17:46:40.765Z,12
2017-01-23T17:48:03.291Z,12
2017-01-23T17:49:26.181Z,12
2017-01-23T17:50:49.059Z,12
2017-01-23T17:52:12.033Z,12
2017-01-23T17:53:34.534Z,12
2017-01-23T17:54:57.494Z,12
2017-01-23T17:56:20.407Z,12
2017-01-23T17:57:43.379Z,12
2017-01-23T17:59:06.256Z,12
2017-01-23T18:00:28.873Z,12
2017-01-23T18:01:51.442Z,12
2017-01-23T18:03:13.979Z,12
2017-01-23T18:04:36.562Z,12
2017-01-23T18:05:59.055Z,12
2017-01-23T18:07:21.651Z,12
2017-01-23T18:08:44.594Z,12
2017-01-23T18:10:07.124Z,12
2017-01-23T18:11:29.632Z,12
2017-01-23T18:12:52.114Z,12
2017-01-23T18:14:14.266Z,12
2017-01-23T18:15:37.154Z,12
2017-01-23T18:16:59.763Z,12
2017-01-23T18:18:22.653Z,12
2017-01-23T18:19:44.719Z,12
2017-01-23T18:21:07.347Z,12
2017-01-23T18:22:29.839Z,12
2017-01-23T18:23:52.740Z,12
2017-01-23T18:25:15.209Z,12
2017-01-23T18:26:37.303Z,12
2017-01-23T18:27:59.514Z,12
2017-01-23T18:29:22.623Z,12
2017-01-23T18:30:45.205Z,12
2017-01-23T18:32:08.184Z,12
2017-01-23T18:33:29.864Z,12
2017-01-23T18:34:51.984Z,12
2017-01-23T18:36:14.121Z,12
2017-01-23T18:37:37.049Z,12
2017-01-23T18:38:59.544Z,12
2017-01-23T18:40:22.099Z,12
2017-01-23T18:41:44.702Z,12
2017-01-23T18:43:06.815Z,12
2017-01-23T18:44:28.928Z,12
2017-01-23T18:45:51.827Z,12
2017-01-23T18:47:14.827Z,12
2017-01-23T18:48:36.995Z,12
2017-01-23T18:49:58.716Z,12
2017-01-23T18:51:21.478Z,12
2017-01-23T18:52:44.566Z,12
2017-01-23T18:54:06.266Z,12
2017-01-23T18:55:28.775Z,12
2017-01-23T18:56:50.875Z,12
2017-01-23T18:58:13.488Z,12
2017-01-23T18:59:36.510Z,0
2017-01-23T19:00:58.608Z,0
2017-01-23T19:02:20.833Z,0
2017-01-23T19:03:43.746Z,0
2017-01-23T19:05:06.249Z,0
2017-01-23T19:06:28.850Z,0
2017-01-23T19:07:50.537Z,0
2017-01-23T19:09:12.616Z,0
2017-01-23T19:10:35.608Z,0
2017-01-23T19:11:58.111Z,0
2017-01-23T19:13:20.670Z,0
2017-01-23T19:14:43.558Z,0
2017-01-23T19:16:05.747Z,0
2017-01-23T19:17:27.840Z,0
2017-01-23T19:18:50.835Z,0